sensor_id;sensor_type;location;lat;lon;timestamp;P1;durP1;ratioP1;P2;durP2;ratioP2
61915;SDS011;47868;51.326;6.550;2023-05-18T00:02:15;8.55;;;3.85;;
61915;SDS011;47868;51.326;6.550;2023-05-18T00:04:41;8.85;;;3.63;;
61915;SDS011;47868;51.326;6.550;2023-05-18T00:07:07;9.43;;;3.97;;
61915;SDS011;47868;51.326;6.550;2023-05-18T00:09:35;11.02;;;3.85;;
61915;SDS011;47868;51.326;6.550;2023-05-18T00:12:02;8.65;;;4.22;;
61915;SDS011;47868;51.326;6.550;2023-05-18T00:14:28;10.40;;;4.07;;
61915;SDS011;47868;51.326;6.550;2023-05-18T00:16:54;9.73;;;4.60;;
61915;SDS011;47868;51.326;6.550;2023-05-18T00:19:20;12.50;;;4.65;;
61915;SDS011;47868;51.326;6.550;2023-05-18T00:21:48;11.45;;;3.97;;
61915;SDS011;47868;51.326;6.550;2023-05-18T00:24:14;13.50;;;4.63;;
61915;SDS011;47868;51.326;6.550;2023-05-18T00:26:41;9.70;;;4.60;;
61915;SDS011;47868;51.326;6.550;2023-05-18T00:29:08;11.98;;;4.38;;
61915;SDS011;47868;51.326;6.550;2023-05-18T00:31:34;11.20;;;3.90;;
61915;SDS011;47868;51.326;6.550;2023-05-18T00:34:02;7.75;;;4.30;;
61915;SDS011;47868;51.326;6.550;2023-05-18T00:36:29;10.32;;;4.32;;
61915;SDS011;47868;51.326;6.550;2023-05-18T00:38:56;10.23;;;3.88;;
61915;SDS011;47868;51.326;6.550;2023-05-18T00:41:22;12.52;;;4.25;;
61915;SDS011;47868;51.326;6.550;2023-05-18T00:43:49;15.98;;;4.30;;
61915;SDS011;47868;51.326;6.550;2023-05-18T00:46:15;11.98;;;4.38;;
61915;SDS011;47868;51.326;6.550;2023-05-18T00:48:41;10.85;;;4.10;;
61915;SDS011;47868;51.326;6.550;2023-05-18T00:51:08;12.52;;;4.00;;
61915;SDS011;47868;51.326;6.550;2023-05-18T00:53:34;11.82;;;3.92;;
61915;SDS011;47868;51.326;6.550;2023-05-18T00:56:01;11.98;;;4.55;;
61915;SDS011;47868;51.326;6.550;2023-05-18T00:58:28;11.88;;;4.32;;
61915;SDS011;47868;51.326;6.550;2023-05-18T01:00:54;8.18;;;4.15;;
61915;SDS011;47868;51.326;6.550;2023-05-18T01:03:20;15.23;;;4.20;;
61915;SDS011;47868;51.326;6.550;2023-05-18T01:05:47;9.65;;;4.30;;
61915;SDS011;47868;51.326;6.550;2023-05-18T01:08:14;10.20;;;4.47;;
61915;SDS011;47868;51.326;6.550;2023-05-18T01:10:40;10.52;;;4.18;;
61915;SDS011;47868;51.326;6.550;2023-05-18T01:13:20;9.15;;;3.88;;
61915;SDS011;47868;51.326;6.550;2023-05-18T01:15:50;11.10;;;3.85;;
61915;SDS011;47868;51.326;6.550;2023-05-18T01:18:24;14.65;;;3.70;;
61915;SDS011;47868;51.326;6.550;2023-05-18T01:21:00;8.40;;;4.07;;
61915;SDS011;47868;51.326;6.550;2023-05-18T01:26:33;15.13;;;3.83;;
61915;SDS011;47868;51.326;6.550;2023-05-18T01:29:02;10.02;;;3.70;;
61915;SDS011;47868;51.326;6.550;2023-05-18T01:31:30;10.30;;;4.57;;
61915;SDS011;47868;51.326;6.550;2023-05-18T01:33:56;8.65;;;4.40;;
61915;SDS011;47868;51.326;6.550;2023-05-18T01:36:22;17.83;;;4.32;;
61915;SDS011;47868;51.326;6.550;2023-05-18T01:38:51;13.15;;;3.90;;
61915;SDS011;47868;51.326;6.550;2023-05-18T01:46:16;11.80;;;3.75;;
61915;SDS011;47868;51.326;6.550;2023-05-18T01:48:47;12.38;;;4.07;;
61915;SDS011;47868;51.326;6.550;2023-05-18T01:51:19;11.32;;;4.32;;
61915;SDS011;47868;51.326;6.550;2023-05-18T01:53:50;14.57;;;4.28;;
61915;SDS011;47868;51.326;6.550;2023-05-18T01:56:17;12.32;;;3.95;;
61915;SDS011;47868;51.326;6.550;2023-05-18T01:58:45;11.15;;;3.75;;
61915;SDS011;47868;51.326;6.550;2023-05-18T02:01:12;9.13;;;3.92;;
61915;SDS011;47868;51.326;6.550;2023-05-18T02:03:40;12.07;;;4.28;;
61915;SDS011;47868;51.326;6.550;2023-05-18T02:06:06;11.73;;;4.10;;
61915;SDS011;47868;51.326;6.550;2023-05-18T02:08:32;11.05;;;3.95;;
61915;SDS011;47868;51.326;6.550;2023-05-18T02:10:58;14.20;;;4.40;;
61915;SDS011;47868;51.326;6.550;2023-05-18T02:13:24;11.75;;;4.43;;
61915;SDS011;47868;51.326;6.550;2023-05-18T02:15:50;10.80;;;3.90;;
61915;SDS011;47868;51.326;6.550;2023-05-18T02:18:16;15.13;;;4.50;;
61915;SDS011;47868;51.326;6.550;2023-05-18T02:20:42;10.57;;;4.05;;
61915;SDS011;47868;51.326;6.550;2023-05-18T02:23:08;8.50;;;3.72;;
61915;SDS011;47868;51.326;6.550;2023-05-18T02:25:34;9.70;;;4.32;;
61915;SDS011;47868;51.326;6.550;2023-05-18T02:28:01;13.50;;;4.25;;
61915;SDS011;47868;51.326;6.550;2023-05-18T02:30:27;10.63;;;4.22;;
61915;SDS011;47868;51.326;6.550;2023-05-18T02:32:57;9.75;;;3.92;;
61915;SDS011;47868;51.326;6.550;2023-05-18T02:35:23;9.48;;;3.60;;
61915;SDS011;47868;51.326;6.550;2023-05-18T02:37:49;10.40;;;4.00;;
61915;SDS011;47868;51.326;6.550;2023-05-18T02:40:15;8.45;;;3.67;;
61915;SDS011;47868;51.326;6.550;2023-05-18T02:42:41;11.52;;;4.68;;
61915;SDS011;47868;51.326;6.550;2023-05-18T02:45:07;14.75;;;4.40;;
61915;SDS011;47868;51.326;6.550;2023-05-18T02:47:33;10.25;;;3.83;;
61915;SDS011;47868;51.326;6.550;2023-05-18T02:50:00;11.60;;;3.90;;
61915;SDS011;47868;51.326;6.550;2023-05-18T02:52:26;14.18;;;4.43;;
61915;SDS011;47868;51.326;6.550;2023-05-18T02:54:52;11.52;;;4.30;;
61915;SDS011;47868;51.326;6.550;2023-05-18T02:57:20;11.82;;;4.20;;
61915;SDS011;47868;51.326;6.550;2023-05-18T02:59:46;9.43;;;4.50;;
61915;SDS011;47868;51.326;6.550;2023-05-18T03:02:12;11.40;;;4.45;;
61915;SDS011;47868;51.326;6.550;2023-05-18T03:04:38;15.52;;;4.82;;
61915;SDS011;47868;51.326;6.550;2023-05-18T03:07:05;14.38;;;4.70;;
61915;SDS011;47868;51.326;6.550;2023-05-18T03:09:32;13.88;;;4.72;;
61915;SDS011;47868;51.326;6.550;2023-05-18T03:11:58;11.40;;;4.78;;
61915;SDS011;47868;51.326;6.550;2023-05-18T03:14:25;10.30;;;4.60;;
61915;SDS011;47868;51.326;6.550;2023-05-18T03:16:51;10.23;;;4.28;;
61915;SDS011;47868;51.326;6.550;2023-05-18T03:19:18;10.63;;;4.75;;
61915;SDS011;47868;51.326;6.550;2023-05-18T03:21:44;11.57;;;4.90;;
61915;SDS011;47868;51.326;6.550;2023-05-18T03:24:13;13.40;;;4.90;;
61915;SDS011;47868;51.326;6.550;2023-05-18T03:26:40;10.65;;;4.85;;
61915;SDS011;47868;51.326;6.550;2023-05-18T03:29:08;9.85;;;4.60;;
61915;SDS011;47868;51.326;6.550;2023-05-18T03:31:35;13.88;;;4.88;;
61915;SDS011;47868;51.326;6.550;2023-05-18T03:34:01;9.13;;;5.05;;
61915;SDS011;47868;51.326;6.550;2023-05-18T03:36:27;14.00;;;5.03;;
61915;SDS011;47868;51.326;6.550;2023-05-18T03:38:54;9.60;;;5.25;;
61915;SDS011;47868;51.326;6.550;2023-05-18T03:41:20;15.90;;;5.32;;
61915;SDS011;47868;51.326;6.550;2023-05-18T03:43:46;10.43;;;4.85;;
61915;SDS011;47868;51.326;6.550;2023-05-18T03:46:12;13.30;;;5.22;;
61915;SDS011;47868;51.326;6.550;2023-05-18T03:48:38;10.20;;;5.60;;
61915;SDS011;47868;51.326;6.550;2023-05-18T03:51:04;14.15;;;6.40;;
61915;SDS011;47868;51.326;6.550;2023-05-18T03:53:30;10.52;;;4.80;;
61915;SDS011;47868;51.326;6.550;2023-05-18T03:55:57;11.18;;;5.35;;
61915;SDS011;47868;51.326;6.550;2023-05-18T03:58:23;16.38;;;6.22;;
61915;SDS011;47868;51.326;6.550;2023-05-18T04:00:51;14.85;;;5.43;;
61915;SDS011;47868;51.326;6.550;2023-05-18T04:03:17;11.90;;;5.82;;
61915;SDS011;47868;51.326;6.550;2023-05-18T04:05:45;11.35;;;6.50;;
61915;SDS011;47868;51.326;6.550;2023-05-18T04:08:11;15.45;;;6.05;;
61915;SDS011;47868;51.326;6.550;2023-05-18T04:10:39;11.38;;;6.68;;
61915;SDS011;47868;51.326;6.550;2023-05-18T04:13:05;14.13;;;6.07;;
61915;SDS011;47868;51.326;6.550;2023-05-18T04:15:32;12.98;;;6.05;;
61915;SDS011;47868;51.326;6.550;2023-05-18T04:17:58;12.52;;;6.47;;
61915;SDS011;47868;51.326;6.550;2023-05-18T04:20:26;14.55;;;6.75;;
61915;SDS011;47868;51.326;6.550;2023-05-18T04:22:52;14.45;;;6.22;;
61915;SDS011;47868;51.326;6.550;2023-05-18T04:25:19;14.82;;;6.80;;
61915;SDS011;47868;51.326;6.550;2023-05-18T04:27:45;10.80;;;6.55;;
61915;SDS011;47868;51.326;6.550;2023-05-18T04:30:12;16.50;;;6.45;;
61915;SDS011;47868;51.326;6.550;2023-05-18T04:32:38;9.05;;;5.85;;
61915;SDS011;47868;51.326;6.550;2023-05-18T04:35:06;10.45;;;6.32;;
61915;SDS011;47868;51.326;6.550;2023-05-18T04:37:33;19.25;;;6.75;;
61915;SDS011;47868;51.326;6.550;2023-05-18T04:39:59;14.30;;;6.60;;
61915;SDS011;47868;51.326;6.550;2023-05-18T04:42:29;15.68;;;7.30;;
61915;SDS011;47868;51.326;6.550;2023-05-18T04:44:55;13.85;;;7.13;;
61915;SDS011;47868;51.326;6.550;2023-05-18T04:49:58;17.00;;;7.35;;
61915;SDS011;47868;51.326;6.550;2023-05-18T04:52:24;10.13;;;6.78;;
61915;SDS011;47868;51.326;6.550;2023-05-18T04:54:54;13.88;;;6.53;;
61915;SDS011;47868;51.326;6.550;2023-05-18T04:57:20;17.95;;;7.45;;
61915;SDS011;47868;51.326;6.550;2023-05-18T04:59:46;16.35;;;7.18;;
61915;SDS011;47868;51.326;6.550;2023-05-18T05:02:12;12.65;;;6.50;;
61915;SDS011;47868;51.326;6.550;2023-05-18T05:04:38;12.13;;;7.18;;
61915;SDS011;47868;51.326;6.550;2023-05-18T05:07:05;14.27;;;7.07;;
61915;SDS011;47868;51.326;6.550;2023-05-18T05:09:31;14.23;;;7.00;;
61915;SDS011;47868;51.326;6.550;2023-05-18T05:11:57;11.70;;;6.72;;
61915;SDS011;47868;51.326;6.550;2023-05-18T05:14:23;14.10;;;6.50;;
61915;SDS011;47868;51.326;6.550;2023-05-18T05:16:50;11.27;;;6.00;;
61915;SDS011;47868;51.326;6.550;2023-05-18T05:19:16;13.68;;;6.43;;
61915;SDS011;47868;51.326;6.550;2023-05-18T05:21:42;13.90;;;6.32;;
61915;SDS011;47868;51.326;6.550;2023-05-18T05:24:08;14.60;;;6.45;;
61915;SDS011;47868;51.326;6.550;2023-05-18T05:26:34;13.20;;;6.60;;
61915;SDS011;47868;51.326;6.550;2023-05-18T05:29:00;14.32;;;6.68;;
61915;SDS011;47868;51.326;6.550;2023-05-18T05:31:26;9.73;;;6.55;;
61915;SDS011;47868;51.326;6.550;2023-05-18T05:33:52;8.38;;;6.35;;
61915;SDS011;47868;51.326;6.550;2023-05-18T05:36:18;22.13;;;6.20;;
61915;SDS011;47868;51.326;6.550;2023-05-18T05:38:44;17.63;;;6.47;;
61915;SDS011;47868;51.326;6.550;2023-05-18T05:41:10;25.90;;;6.93;;
61915;SDS011;47868;51.326;6.550;2023-05-18T05:43:36;16.17;;;6.65;;
61915;SDS011;47868;51.326;6.550;2023-05-18T05:46:02;11.82;;;6.28;;
61915;SDS011;47868;51.326;6.550;2023-05-18T05:48:28;13.48;;;6.80;;
61915;SDS011;47868;51.326;6.550;2023-05-18T05:50:54;14.38;;;6.57;;
61915;SDS011;47868;51.326;6.550;2023-05-18T05:53:20;11.68;;;6.80;;
61915;SDS011;47868;51.326;6.550;2023-05-18T05:55:47;16.85;;;6.65;;
61915;SDS011;47868;51.326;6.550;2023-05-18T05:58:13;21.23;;;7.15;;
61915;SDS011;47868;51.326;6.550;2023-05-18T06:00:39;16.42;;;6.72;;
61915;SDS011;47868;51.326;6.550;2023-05-18T06:03:07;20.77;;;6.85;;
61915;SDS011;47868;51.326;6.550;2023-05-18T06:05:33;15.55;;;7.25;;
61915;SDS011;47868;51.326;6.550;2023-05-18T06:07:59;12.65;;;6.10;;
61915;SDS011;47868;51.326;6.550;2023-05-18T06:10:25;13.70;;;5.93;;
61915;SDS011;47868;51.326;6.550;2023-05-18T06:12:51;20.48;;;7.13;;
61915;SDS011;47868;51.326;6.550;2023-05-18T06:15:17;12.45;;;6.53;;
61915;SDS011;47868;51.326;6.550;2023-05-18T06:17:43;15.48;;;7.25;;
61915;SDS011;47868;51.326;6.550;2023-05-18T06:20:10;15.63;;;7.18;;
61915;SDS011;47868;51.326;6.550;2023-05-18T06:22:36;15.95;;;7.97;;
61915;SDS011;47868;51.326;6.550;2023-05-18T06:25:02;21.55;;;7.82;;
61915;SDS011;47868;51.326;6.550;2023-05-18T06:27:28;16.13;;;7.78;;
61915;SDS011;47868;51.326;6.550;2023-05-18T06:29:54;13.95;;;8.18;;
61915;SDS011;47868;51.326;6.550;2023-05-18T06:32:20;17.10;;;7.43;;
61915;SDS011;47868;51.326;6.550;2023-05-18T06:34:47;18.58;;;10.10;;
61915;SDS011;47868;51.326;6.550;2023-05-18T06:37:14;23.58;;;11.40;;
61915;SDS011;47868;51.326;6.550;2023-05-18T06:39:41;21.17;;;9.07;;
61915;SDS011;47868;51.326;6.550;2023-05-18T06:42:07;13.55;;;7.53;;
61915;SDS011;47868;51.326;6.550;2023-05-18T06:44:33;17.17;;;8.05;;
61915;SDS011;47868;51.326;6.550;2023-05-18T06:47:00;15.27;;;7.35;;
61915;SDS011;47868;51.326;6.550;2023-05-18T06:49:26;15.85;;;6.80;;
61915;SDS011;47868;51.326;6.550;2023-05-18T06:51:52;18.50;;;6.32;;
61915;SDS011;47868;51.326;6.550;2023-05-18T06:54:18;18.25;;;6.70;;
61915;SDS011;47868;51.326;6.550;2023-05-18T06:56:44;13.07;;;6.65;;
61915;SDS011;47868;51.326;6.550;2023-05-18T06:59:11;10.07;;;6.15;;
61915;SDS011;47868;51.326;6.550;2023-05-18T07:01:37;13.45;;;7.10;;
61915;SDS011;47868;51.326;6.550;2023-05-18T07:04:03;13.00;;;5.72;;
61915;SDS011;47868;51.326;6.550;2023-05-18T07:06:29;13.02;;;6.18;;
61915;SDS011;47868;51.326;6.550;2023-05-18T07:08:55;11.95;;;6.00;;
61915;SDS011;47868;51.326;6.550;2023-05-18T07:11:21;16.40;;;6.32;;
61915;SDS011;47868;51.326;6.550;2023-05-18T07:13:47;9.65;;;5.45;;
61915;SDS011;47868;51.326;6.550;2023-05-18T07:16:13;13.95;;;5.72;;
61915;SDS011;47868;51.326;6.550;2023-05-18T07:18:39;12.98;;;6.28;;
61915;SDS011;47868;51.326;6.550;2023-05-18T07:21:06;12.18;;;6.15;;
61915;SDS011;47868;51.326;6.550;2023-05-18T07:23:32;12.50;;;5.63;;
61915;SDS011;47868;51.326;6.550;2023-05-18T07:25:58;10.20;;;5.40;;
61915;SDS011;47868;51.326;6.550;2023-05-18T07:28:24;13.55;;;5.25;;
61915;SDS011;47868;51.326;6.550;2023-05-18T07:30:50;14.77;;;6.03;;
61915;SDS011;47868;51.326;6.550;2023-05-18T07:33:16;11.57;;;5.32;;
61915;SDS011;47868;51.326;6.550;2023-05-18T07:35:42;18.98;;;7.40;;
61915;SDS011;47868;51.326;6.550;2023-05-18T07:38:10;12.00;;;6.97;;
61915;SDS011;47868;51.326;6.550;2023-05-18T07:40:36;17.70;;;6.65;;
61915;SDS011;47868;51.326;6.550;2023-05-18T07:43:02;11.45;;;5.43;;
61915;SDS011;47868;51.326;6.550;2023-05-18T07:45:28;13.15;;;6.18;;
61915;SDS011;47868;51.326;6.550;2023-05-18T07:47:54;11.85;;;6.18;;
61915;SDS011;47868;51.326;6.550;2023-05-18T07:50:21;15.55;;;6.45;;
61915;SDS011;47868;51.326;6.550;2023-05-18T07:52:47;14.30;;;5.70;;
61915;SDS011;47868;51.326;6.550;2023-05-18T07:55:13;17.08;;;5.28;;
61915;SDS011;47868;51.326;6.550;2023-05-18T07:57:39;12.80;;;6.28;;
61915;SDS011;47868;51.326;6.550;2023-05-18T08:00:05;14.10;;;5.00;;
61915;SDS011;47868;51.326;6.550;2023-05-18T08:02:33;11.27;;;5.40;;
61915;SDS011;47868;51.326;6.550;2023-05-18T08:04:59;11.55;;;5.35;;
61915;SDS011;47868;51.326;6.550;2023-05-18T08:07:25;10.75;;;5.45;;
61915;SDS011;47868;51.326;6.550;2023-05-18T08:09:53;13.30;;;5.72;;
61915;SDS011;47868;51.326;6.550;2023-05-18T08:12:20;11.85;;;4.85;;
61915;SDS011;47868;51.326;6.550;2023-05-18T08:14:47;13.15;;;4.80;;
61915;SDS011;47868;51.326;6.550;2023-05-18T08:17:13;12.50;;;4.65;;
61915;SDS011;47868;51.326;6.550;2023-05-18T08:19:39;9.55;;;4.00;;
61915;SDS011;47868;51.326;6.550;2023-05-18T08:22:05;10.57;;;4.68;;
61915;SDS011;47868;51.326;6.550;2023-05-18T08:24:31;10.95;;;3.95;;
61915;SDS011;47868;51.326;6.550;2023-05-18T08:26:57;14.52;;;4.60;;
61915;SDS011;47868;51.326;6.550;2023-05-18T08:29:24;12.50;;;4.20;;
61915;SDS011;47868;51.326;6.550;2023-05-18T08:31:50;11.70;;;4.47;;
61915;SDS011;47868;51.326;6.550;2023-05-18T08:34:16;10.07;;;4.05;;
61915;SDS011;47868;51.326;6.550;2023-05-18T08:36:42;12.20;;;3.83;;
61915;SDS011;47868;51.326;6.550;2023-05-18T08:39:09;9.13;;;4.38;;
61915;SDS011;47868;51.326;6.550;2023-05-18T08:41:37;12.30;;;4.05;;
61915;SDS011;47868;51.326;6.550;2023-05-18T08:44:08;9.77;;;4.32;;
61915;SDS011;47868;51.326;6.550;2023-05-18T08:46:39;11.65;;;4.15;;
61915;SDS011;47868;51.326;6.550;2023-05-18T08:49:06;11.00;;;4.97;;
61915;SDS011;47868;51.326;6.550;2023-05-18T08:51:35;9.30;;;4.47;;
61915;SDS011;47868;51.326;6.550;2023-05-18T08:54:01;9.30;;;4.07;;
61915;SDS011;47868;51.326;6.550;2023-05-18T08:56:29;10.95;;;4.18;;
61915;SDS011;47868;51.326;6.550;2023-05-18T08:58:56;11.18;;;3.92;;
61915;SDS011;47868;51.326;6.550;2023-05-18T09:01:25;14.00;;;4.63;;
61915;SDS011;47868;51.326;6.550;2023-05-18T09:03:55;10.93;;;3.92;;
61915;SDS011;47868;51.326;6.550;2023-05-18T09:06:22;9.35;;;4.10;;
61915;SDS011;47868;51.326;6.550;2023-05-18T09:08:48;8.63;;;4.20;;
61915;SDS011;47868;51.326;6.550;2023-05-18T09:11:16;9.07;;;4.30;;
61915;SDS011;47868;51.326;6.550;2023-05-18T09:13:43;11.02;;;4.00;;
61915;SDS011;47868;51.326;6.550;2023-05-18T09:16:09;7.47;;;3.90;;
61915;SDS011;47868;51.326;6.550;2023-05-18T09:18:35;10.77;;;5.07;;
61915;SDS011;47868;51.326;6.550;2023-05-18T09:21:01;10.98;;;4.63;;
61915;SDS011;47868;51.326;6.550;2023-05-18T09:23:27;9.88;;;4.88;;
61915;SDS011;47868;51.326;6.550;2023-05-18T09:25:53;10.20;;;4.22;;
61915;SDS011;47868;51.326;6.550;2023-05-18T09:28:26;9.88;;;4.15;;
61915;SDS011;47868;51.326;6.550;2023-05-18T09:30:52;9.52;;;4.43;;
61915;SDS011;47868;51.326;6.550;2023-05-18T09:33:19;8.30;;;4.43;;
61915;SDS011;47868;51.326;6.550;2023-05-18T09:35:51;8.30;;;4.22;;
61915;SDS011;47868;51.326;6.550;2023-05-18T09:38:18;11.15;;;4.30;;
61915;SDS011;47868;51.326;6.550;2023-05-18T09:40:47;8.15;;;4.43;;
61915;SDS011;47868;51.326;6.550;2023-05-18T09:43:15;10.75;;;4.00;;
61915;SDS011;47868;51.326;6.550;2023-05-18T09:45:43;9.52;;;4.53;;
61915;SDS011;47868;51.326;6.550;2023-05-18T09:48:09;8.73;;;4.53;;
61915;SDS011;47868;51.326;6.550;2023-05-18T09:50:36;9.13;;;4.32;;
61915;SDS011;47868;51.326;6.550;2023-05-18T09:53:04;6.93;;;3.95;;
61915;SDS011;47868;51.326;6.550;2023-05-18T09:55:31;11.27;;;4.93;;
61915;SDS011;47868;51.326;6.550;2023-05-18T09:57:57;10.25;;;4.47;;
61915;SDS011;47868;51.326;6.550;2023-05-18T10:00:23;14.65;;;5.03;;
61915;SDS011;47868;51.326;6.550;2023-05-18T10:02:50;9.07;;;4.55;;
61915;SDS011;47868;51.326;6.550;2023-05-18T10:05:17;8.70;;;4.47;;
61915;SDS011;47868;51.326;6.550;2023-05-18T10:07:44;10.85;;;4.50;;
61915;SDS011;47868;51.326;6.550;2023-05-18T10:10:11;11.77;;;4.40;;
61915;SDS011;47868;51.326;6.550;2023-05-18T10:12:37;12.20;;;5.20;;
61915;SDS011;47868;51.326;6.550;2023-05-18T10:15:07;9.52;;;5.35;;
61915;SDS011;47868;51.326;6.550;2023-05-18T10:17:33;11.70;;;5.03;;
61915;SDS011;47868;51.326;6.550;2023-05-18T10:20:01;8.68;;;5.05;;
61915;SDS011;47868;51.326;6.550;2023-05-18T10:22:29;10.07;;;4.72;;
61915;SDS011;47868;51.326;6.550;2023-05-18T10:24:58;16.10;;;4.68;;
61915;SDS011;47868;51.326;6.550;2023-05-18T10:27:26;8.75;;;4.43;;
61915;SDS011;47868;51.326;6.550;2023-05-18T10:29:54;12.70;;;4.65;;
61915;SDS011;47868;51.326;6.550;2023-05-18T10:32:20;9.73;;;4.97;;
61915;SDS011;47868;51.326;6.550;2023-05-18T10:34:49;8.82;;;5.00;;
61915;SDS011;47868;51.326;6.550;2023-05-18T10:37:16;8.18;;;4.32;;
61915;SDS011;47868;51.326;6.550;2023-05-18T10:39:43;10.05;;;4.88;;
61915;SDS011;47868;51.326;6.550;2023-05-18T10:42:10;15.80;;;4.95;;
61915;SDS011;47868;51.326;6.550;2023-05-18T10:44:36;9.50;;;4.28;;
61915;SDS011;47868;51.326;6.550;2023-05-18T10:47:04;9.90;;;4.50;;
61915;SDS011;47868;51.326;6.550;2023-05-18T10:49:30;8.82;;;4.30;;
61915;SDS011;47868;51.326;6.550;2023-05-18T10:51:57;13.27;;;5.60;;
61915;SDS011;47868;51.326;6.550;2023-05-18T10:54:24;9.52;;;4.75;;
61915;SDS011;47868;51.326;6.550;2023-05-18T10:56:51;10.13;;;4.88;;
61915;SDS011;47868;51.326;6.550;2023-05-18T10:59:18;10.98;;;4.40;;
61915;SDS011;47868;51.326;6.550;2023-05-18T11:01:46;12.23;;;4.28;;
61915;SDS011;47868;51.326;6.550;2023-05-18T11:04:14;8.20;;;4.25;;
61915;SDS011;47868;51.326;6.550;2023-05-18T11:06:40;9.50;;;4.45;;
61915;SDS011;47868;51.326;6.550;2023-05-18T11:09:06;11.73;;;4.25;;
61915;SDS011;47868;51.326;6.550;2023-05-18T11:11:51;11.00;;;4.75;;
61915;SDS011;47868;51.326;6.550;2023-05-18T11:14:26;8.88;;;5.07;;
61915;SDS011;47868;51.326;6.550;2023-05-18T11:16:52;9.40;;;5.20;;
61915;SDS011;47868;51.326;6.550;2023-05-18T11:19:19;9.27;;;4.88;;
61915;SDS011;47868;51.326;6.550;2023-05-18T11:21:50;9.40;;;4.45;;
61915;SDS011;47868;51.326;6.550;2023-05-18T11:26:57;12.88;;;4.50;;
61915;SDS011;47868;51.326;6.550;2023-05-18T11:29:28;6.57;;;4.18;;
61915;SDS011;47868;51.326;6.550;2023-05-18T11:31:55;10.57;;;4.45;;
61915;SDS011;47868;51.326;6.550;2023-05-18T11:37:08;8.65;;;4.00;;
61915;SDS011;47868;51.326;6.550;2023-05-18T11:39:34;8.25;;;4.20;;
61915;SDS011;47868;51.326;6.550;2023-05-18T11:42:05;7.85;;;3.78;;
61915;SDS011;47868;51.326;6.550;2023-05-18T11:44:31;9.75;;;4.00;;
61915;SDS011;47868;51.326;6.550;2023-05-18T11:49:30;6.60;;;3.55;;
61915;SDS011;47868;51.326;6.550;2023-05-18T11:52:01;10.30;;;3.95;;
61915;SDS011;47868;51.326;6.550;2023-05-18T11:54:27;9.15;;;4.13;;
61915;SDS011;47868;51.326;6.550;2023-05-18T11:56:58;9.95;;;4.38;;
61915;SDS011;47868;51.326;6.550;2023-05-18T11:59:31;7.53;;;3.63;;
61915;SDS011;47868;51.326;6.550;2023-05-18T12:01:58;8.43;;;3.38;;
61915;SDS011;47868;51.326;6.550;2023-05-18T12:04:25;8.43;;;3.30;;
61915;SDS011;47868;51.326;6.550;2023-05-18T12:06:52;10.60;;;3.90;;
61915;SDS011;47868;51.326;6.550;2023-05-18T12:09:18;10.00;;;3.95;;
61915;SDS011;47868;51.326;6.550;2023-05-18T12:11:45;8.75;;;3.58;;
61915;SDS011;47868;51.326;6.550;2023-05-18T12:14:11;8.73;;;3.63;;
61915;SDS011;47868;51.326;6.550;2023-05-18T12:16:38;7.50;;;3.40;;
61915;SDS011;47868;51.326;6.550;2023-05-18T12:19:07;8.13;;;3.30;;
61915;SDS011;47868;51.326;6.550;2023-05-18T12:21:36;9.80;;;3.90;;
61915;SDS011;47868;51.326;6.550;2023-05-18T12:24:02;10.85;;;3.80;;
61915;SDS011;47868;51.326;6.550;2023-05-18T12:26:29;8.27;;;3.90;;
61915;SDS011;47868;51.326;6.550;2023-05-18T12:28:58;6.88;;;3.40;;
61915;SDS011;47868;51.326;6.550;2023-05-18T12:31:24;8.90;;;4.03;;
61915;SDS011;47868;51.326;6.550;2023-05-18T12:33:52;8.25;;;3.75;;
61915;SDS011;47868;51.326;6.550;2023-05-18T12:36:18;6.07;;;3.20;;
61915;SDS011;47868;51.326;6.550;2023-05-18T12:38:48;8.15;;;3.60;;
61915;SDS011;47868;51.326;6.550;2023-05-18T12:41:22;9.68;;;3.58;;
61915;SDS011;47868;51.326;6.550;2023-05-18T12:43:49;8.13;;;3.47;;
61915;SDS011;47868;51.326;6.550;2023-05-18T12:46:16;7.70;;;3.95;;
61915;SDS011;47868;51.326;6.550;2023-05-18T12:48:45;6.72;;;3.20;;
61915;SDS011;47868;51.326;6.550;2023-05-18T12:51:17;6.93;;;3.40;;
61915;SDS011;47868;51.326;6.550;2023-05-18T12:53:44;7.47;;;3.58;;
61915;SDS011;47868;51.326;6.550;2023-05-18T12:56:10;7.25;;;3.05;;
61915;SDS011;47868;51.326;6.550;2023-05-18T12:58:36;8.77;;;3.50;;
61915;SDS011;47868;51.326;6.550;2023-05-18T13:01:08;7.65;;;3.75;;
61915;SDS011;47868;51.326;6.550;2023-05-18T13:03:37;7.47;;;3.38;;
61915;SDS011;47868;51.326;6.550;2023-05-18T13:06:04;5.07;;;2.83;;
61915;SDS011;47868;51.326;6.550;2023-05-18T13:08:31;4.18;;;2.65;;
61915;SDS011;47868;51.326;6.550;2023-05-18T13:11:01;7.32;;;3.10;;
61915;SDS011;47868;51.326;6.550;2023-05-18T13:13:27;9.27;;;3.10;;
61915;SDS011;47868;51.326;6.550;2023-05-18T13:15:53;6.78;;;3.25;;
61915;SDS011;47868;51.326;6.550;2023-05-18T13:18:19;7.22;;;3.05;;
61915;SDS011;47868;51.326;6.550;2023-05-18T13:20:48;8.27;;;3.80;;
61915;SDS011;47868;51.326;6.550;2023-05-18T13:23:19;8.00;;;3.38;;
61915;SDS011;47868;51.326;6.550;2023-05-18T13:25:45;6.97;;;3.10;;
61915;SDS011;47868;51.326;6.550;2023-05-18T13:28:12;7.97;;;3.10;;
61915;SDS011;47868;51.326;6.550;2023-05-18T13:30:39;6.75;;;3.17;;
61915;SDS011;47868;51.326;6.550;2023-05-18T13:33:06;9.63;;;3.67;;
61915;SDS011;47868;51.326;6.550;2023-05-18T13:35:32;7.95;;;3.53;;
61915;SDS011;47868;51.326;6.550;2023-05-18T13:37:58;11.32;;;3.58;;
61915;SDS011;47868;51.326;6.550;2023-05-18T13:40:24;8.35;;;3.50;;
61915;SDS011;47868;51.326;6.550;2023-05-18T13:42:51;7.90;;;3.42;;
61915;SDS011;47868;51.326;6.550;2023-05-18T13:45:17;7.57;;;3.50;;
61915;SDS011;47868;51.326;6.550;2023-05-18T13:47:45;7.35;;;3.22;;
61915;SDS011;47868;51.326;6.550;2023-05-18T13:50:18;6.22;;;3.25;;
61915;SDS011;47868;51.326;6.550;2023-05-18T13:52:45;8.35;;;3.25;;
61915;SDS011;47868;51.326;6.550;2023-05-18T13:55:11;8.57;;;4.07;;
61915;SDS011;47868;51.326;6.550;2023-05-18T13:57:38;10.10;;;3.85;;
61915;SDS011;47868;51.326;6.550;2023-05-18T14:00:04;4.93;;;3.00;;
61915;SDS011;47868;51.326;6.550;2023-05-18T14:02:35;7.90;;;3.47;;
61915;SDS011;47868;51.326;6.550;2023-05-18T14:05:02;7.47;;;3.55;;
61915;SDS011;47868;51.326;6.550;2023-05-18T14:07:28;10.02;;;3.88;;
61915;SDS011;47868;51.326;6.550;2023-05-18T14:09:54;6.07;;;3.72;;
61915;SDS011;47868;51.326;6.550;2023-05-18T14:12:20;6.80;;;3.47;;
61915;SDS011;47868;51.326;6.550;2023-05-18T14:14:46;11.75;;;3.75;;
61915;SDS011;47868;51.326;6.550;2023-05-18T14:17:13;11.02;;;3.83;;
61915;SDS011;47868;51.326;6.550;2023-05-18T14:19:39;7.88;;;3.20;;
61915;SDS011;47868;51.326;6.550;2023-05-18T14:22:05;10.18;;;3.65;;
61915;SDS011;47868;51.326;6.550;2023-05-18T14:24:31;8.82;;;4.13;;
61915;SDS011;47868;51.326;6.550;2023-05-18T14:26:57;7.13;;;3.65;;
61915;SDS011;47868;51.326;6.550;2023-05-18T14:29:23;10.52;;;4.05;;
61915;SDS011;47868;51.326;6.550;2023-05-18T14:31:49;10.25;;;3.78;;
61915;SDS011;47868;51.326;6.550;2023-05-18T14:34:15;8.13;;;3.47;;
61915;SDS011;47868;51.326;6.550;2023-05-18T14:36:41;8.80;;;3.45;;
61915;SDS011;47868;51.326;6.550;2023-05-18T14:39:07;6.50;;;3.15;;
61915;SDS011;47868;51.326;6.550;2023-05-18T14:41:33;8.25;;;4.70;;
61915;SDS011;47868;51.326;6.550;2023-05-18T14:43:59;7.97;;;3.90;;
61915;SDS011;47868;51.326;6.550;2023-05-18T14:46:28;9.60;;;3.35;;
61915;SDS011;47868;51.326;6.550;2023-05-18T14:48:54;6.50;;;3.53;;
61915;SDS011;47868;51.326;6.550;2023-05-18T14:51:20;9.63;;;3.40;;
61915;SDS011;47868;51.326;6.550;2023-05-18T14:53:48;7.85;;;3.35;;
61915;SDS011;47868;51.326;6.550;2023-05-18T14:56:15;10.90;;;3.45;;